createdAt,value
2023-04-10T00:00:09.826Z,128.42
2023-04-10T00:01:09.722Z,130.93
2023-04-10T00:02:09.834Z,130.31
2023-04-10T00:03:09.803Z,129.71
2023-04-10T00:04:09.911Z,128.18
2023-04-10T00:05:09.833Z,129.87
2023-04-10T00:06:09.703Z,128.37
2023-04-10T00:07:09.701Z,130.71
2023-04-10T00:08:09.718Z,129.54
2023-04-10T00:09:09.691Z,130.81
2023-04-10T00:10:09.694Z,128.93
2023-04-10T00:11:09.730Z,127.41
2023-04-10T00:12:09.673Z,131.22
2023-04-10T00:13:09.702Z,131.51
2023-04-10T00:14:09.692Z,132.02
2023-04-10T00:15:09.707Z,129.35
2023-04-10T00:16:09.738Z,130.50
2023-04-10T00:17:09.669Z,129.00
2023-04-10T00:18:09.872Z,128.33
2023-04-10T00:19:09.754Z,131.19
2023-04-10T00:20:09.695Z,128.38
2023-04-10T00:21:09.666Z,127.05
2023-04-10T00:22:09.692Z,131.34
2023-04-10T00:23:09.719Z,130.66
2023-04-10T00:24:09.669Z,131.27
2023-04-10T00:25:09.683Z,129.58
2023-04-10T00:26:09.668Z,129.54
2023-04-10T00:27:09.659Z,128.94
2023-04-10T00:28:09.700Z,130.40
2023-04-10T00:29:09.682Z,132.45
2023-04-10T00:30:09.702Z,129.01
2023-04-10T00:31:09.698Z,128.67
2023-04-10T00:32:09.717Z,130.09
2023-04-10T00:33:09.799Z,129.99
2023-04-10T00:34:09.721Z,129.85
2023-04-10T00:35:09.714Z,131.11
2023-04-10T00:36:09.750Z,130.40
2023-04-10T00:37:09.736Z,126.94
2023-04-10T00:38:09.873Z,130.18
2023-04-10T00:39:09.791Z,130.49
2023-04-10T00:40:09.712Z,130.49
2023-04-10T00:41:09.718Z,128.54
2023-04-10T00:42:09.775Z,129.33
2023-04-10T00:43:09.802Z,130.32
2023-04-10T00:44:09.807Z,128.16
2023-04-10T00:45:09.770Z,129.74
2023-04-10T00:46:09.877Z,133.01
2023-04-10T00:47:09.812Z,130.43
2023-04-10T00:48:09.865Z,131.19
2023-04-10T00:49:09.860Z,127.94
2023-04-10T00:50:09.865Z,129.96
2023-04-10T00:51:09.908Z,127.16
2023-04-10T00:52:09.942Z,128.27
2023-04-10T00:53:09.972Z,129.65
2023-04-10T00:54:09.991Z,127.95
2023-04-10T00:55:10.014Z,129.18
2023-04-10T00:56:10.015Z,127.65
2023-04-10T00:57:10.006Z,130.08
2023-04-10T00:58:10.016Z,126.42
2023-04-10T00:59:10.065Z,128.62
2023-04-10T01:00:10.073Z,130.14
2023-04-10T01:01:10.150Z,130.82
2023-04-10T01:02:10.210Z,131.16
2023-04-10T01:03:10.319Z,128.75
2023-04-10T01:04:10.290Z,128.60
2023-04-10T01:05:10.227Z,123.57
2023-04-10T01:06:10.222Z,129.13
2023-04-10T01:07:10.222Z,127.66
2023-04-10T01:08:10.231Z,128.43
2023-04-10T01:09:10.262Z,128.35
2023-04-10T01:10:10.272Z,127.20
2023-04-10T01:11:10.313Z,127.30
2023-04-10T01:12:10.325Z,126.35
2023-04-10T01:13:10.412Z,128.50
2023-04-10T01:14:10.497Z,126.91
2023-04-10T01:15:10.437Z,126.86
2023-04-10T01:16:10.406Z,125.74
2023-04-10T01:17:10.479Z,127.07
2023-04-10T01:18:10.454Z,129.15
2023-04-10T01:19:10.505Z,129.03
2023-04-10T01:20:10.543Z,127.85
2023-04-10T01:21:10.545Z,126.71
2023-04-10T01:22:10.566Z,128.58
2023-04-10T01:23:10.586Z,128.19
2023-04-10T01:24:10.695Z,129.54
2023-04-10T01:25:10.643Z,125.91
2023-04-10T01:26:10.684Z,127.08
2023-04-10T01:27:10.737Z,127.07
2023-04-10T01:28:10.694Z,131.74
2023-04-10T01:29:10.730Z,126.24
2023-04-10T01:30:10.760Z,126.66
2023-04-10T01:31:10.794Z,128.24
2023-04-10T01:32:10.865Z,128.03
2023-04-10T01:33:10.863Z,129.10
2023-04-10T01:34:10.892Z,127.61
2023-04-10T01:35:10.881Z,126.23
2023-04-10T01:36:10.963Z,125.67
2023-04-10T01:37:10.936Z,126.75
2023-04-10T01:38:10.965Z,125.67
2023-04-10T01:39:11.015Z,126.84
2023-04-10T01:40:11.064Z,126.09
2023-04-10T01:41:11.092Z,125.69
2023-04-10T01:42:11.131Z,126.33
2023-04-10T01:43:11.137Z,125.49
2023-04-10T01:44:11.121Z,125.47
2023-04-10T01:45:11.177Z,126.06
2023-04-10T01:46:11.230Z,131.28
2023-04-10T01:47:11.273Z,125.69
2023-04-10T01:48:11.221Z,127.36
2023-04-10T01:49:11.240Z,127.65
2023-04-10T01:50:11.294Z,129.10
2023-04-10T01:51:11.324Z,127.53
2023-04-10T01:52:11.305Z,124.51
2023-04-10T01:53:11.363Z,129.06
2023-04-10T01:54:11.377Z,127.62
2023-04-10T01:55:11.386Z,126.07
2023-04-10T01:56:11.464Z,127.37
2023-04-10T01:57:11.469Z,127.60
2023-04-10T01:58:11.455Z,127.25
2023-04-10T01:59:11.507Z,126.31
2023-04-10T02:00:11.585Z,126.81
2023-04-10T02:01:22.522Z,126.97
2023-04-10T02:02:12.606Z,127.07
2023-04-10T02:03:11.839Z,127.45
2023-04-10T02:04:11.650Z,127.95
2023-04-10T02:05:11.512Z,128.54
2023-04-10T02:06:11.505Z,129.69
2023-04-10T02:07:11.470Z,127.90
2023-04-10T02:08:11.523Z,127.51
2023-04-10T02:09:11.489Z,128.72
2023-04-10T02:10:11.456Z,129.67
2023-04-10T02:11:11.477Z,128.41
2023-04-10T02:12:11.450Z,125.09
2023-04-10T02:13:11.458Z,129.51
2023-04-10T02:14:11.457Z,124.70
2023-04-10T02:15:11.462Z,126.39
2023-04-10T02:16:11.495Z,126.42
2023-04-10T02:17:11.427Z,128.50
2023-04-10T02:18:11.440Z,128.36
2023-04-10T02:19:11.399Z,127.48
2023-04-10T02:20:11.397Z,127.62
2023-04-10T02:21:11.408Z,129.61
2023-04-10T02:22:11.432Z,126.26
2023-04-10T02:23:11.451Z,125.72
2023-04-10T02:24:11.540Z,127.05
2023-04-10T02:25:11.504Z,128.07
2023-04-10T02:26:11.571Z,125.48
2023-04-10T02:27:11.567Z,125.73
2023-04-10T02:28:11.590Z,123.93
2023-04-10T02:29:11.601Z,128.21
2023-04-10T02:30:11.617Z,127.32
2023-04-10T02:31:11.775Z,124.22
2023-04-10T02:32:11.680Z,127.54
2023-04-10T02:33:11.720Z,125.99
2023-04-10T02:34:11.752Z,129.80
2023-04-10T02:35:11.824Z,124.88
2023-04-10T02:36:11.823Z,124.67
2023-04-10T02:37:11.829Z,128.37
2023-04-10T02:38:11.833Z,127.36
2023-04-10T02:39:11.846Z,129.25
2023-04-10T02:40:11.879Z,125.65
2023-04-10T02:41:11.903Z,123.97
2023-04-10T02:42:11.959Z,126.80
2023-04-10T02:43:11.972Z,124.81
2023-04-10T02:44:11.965Z,124.25
2023-04-10T02:45:11.977Z,124.00
2023-04-10T02:46:12.124Z,124.69
2023-04-10T02:47:12.020Z,121.57
2023-04-10T02:48:12.058Z,127.49
2023-04-10T02:49:12.107Z,123.88
2023-04-10T02:50:12.161Z,124.29
2023-04-10T02:51:12.107Z,123.34
2023-04-10T02:52:12.130Z,121.21
2023-04-10T02:53:12.131Z,125.57
2023-04-10T02:54:12.173Z,125.37
2023-04-10T02:55:12.201Z,124.38
2023-04-10T02:56:12.267Z,122.18
2023-04-10T02:57:12.254Z,119.93
2023-04-10T02:58:14.867Z,126.48
2023-04-10T02:59:12.271Z,123.75
2023-04-10T03:00:12.276Z,127.30
2023-04-10T03:01:12.234Z,125.19
2023-04-10T03:02:12.379Z,120.40
2023-04-10T03:03:12.267Z,122.56
2023-04-10T03:04:12.333Z,121.75
2023-04-10T03:05:12.213Z,122.23
2023-04-10T03:06:12.238Z,123.88
2023-04-10T03:07:12.226Z,125.32
2023-04-10T03:08:12.181Z,121.61
2023-04-10T03:09:12.201Z,121.39
2023-04-10T03:10:12.206Z,118.04
2023-04-10T03:11:12.211Z,124.47
2023-04-10T03:12:12.149Z,122.97
2023-04-10T03:13:12.115Z,119.32
2023-04-10T03:14:12.121Z,123.72
2023-04-10T03:15:12.144Z,117.98
2023-04-10T03:16:12.170Z,120.86
2023-04-10T03:17:12.156Z,121.60
2023-04-10T03:18:12.184Z,121.53
2023-04-10T03:19:12.116Z,121.92
2023-04-10T03:20:12.128Z,124.48
2023-04-10T03:21:12.117Z,123.29
2023-04-10T03:22:12.085Z,119.95
2023-04-10T03:23:12.139Z,121.67
2023-04-10T03:24:12.097Z,121.39
2023-04-10T03:25:12.079Z,122.72
2023-04-10T03:26:12.049Z,121.98
2023-04-10T03:27:12.062Z,120.12
2023-04-10T03:28:12.057Z,120.88
2023-04-10T03:29:12.139Z,121.68
2023-04-10T03:30:12.037Z,121.76
2023-04-10T03:31:12.063Z,117.61
2023-04-10T03:32:12.022Z,118.91
2023-04-10T03:33:12.058Z,123.50
2023-04-10T03:34:11.988Z,123.21
2023-04-10T03:35:12.004Z,123.17
2023-04-10T03:36:12.042Z,119.31
2023-04-10T03:37:12.021Z,121.83
2023-04-10T03:38:12.021Z,122.12
2023-04-10T03:39:11.992Z,123.68
2023-04-10T03:40:12.000Z,121.17
2023-04-10T03:41:11.950Z,121.16
2023-04-10T03:42:11.950Z,121.24
2023-04-10T03:43:11.973Z,122.76
2023-04-10T03:44:11.914Z,123.40
2023-04-10T03:45:11.922Z,122.81
2023-04-10T03:46:11.909Z,123.74
2023-04-10T03:47:11.961Z,120.33
2023-04-10T03:48:11.957Z,125.27
2023-04-10T03:49:11.922Z,123.39
2023-04-10T03:50:11.945Z,121.98
2023-04-10T03:51:11.905Z,120.77
2023-04-10T03:52:11.869Z,122.92
2023-04-10T03:53:11.890Z,121.23
2023-04-10T03:54:11.888Z,123.30
2023-04-10T03:55:11.875Z,123.51
2023-04-10T03:56:11.857Z,120.55
2023-04-10T03:57:11.844Z,122.17
2023-04-10T03:58:11.854Z,121.06
2023-04-10T03:59:11.912Z,119.54
2023-04-10T04:00:11.884Z,123.02
2023-04-10T04:01:11.969Z,123.39
2023-04-10T04:02:12.061Z,120.84
2023-04-10T04:03:12.175Z,118.83
2023-04-10T04:04:12.263Z,110.95
2023-04-10T04:05:12.103Z,99.63
2023-04-10T04:06:12.170Z,98.99
2023-04-10T04:07:12.186Z,88.12
2023-04-10T04:08:12.189Z,80.08
2023-04-10T04:09:12.227Z,77.24
2023-04-10T04:10:12.307Z,67.27
2023-04-10T04:11:12.308Z,57.37
2023-04-10T04:12:12.366Z,52.50
2023-04-10T04:13:12.426Z,42.70
2023-04-10T04:14:12.474Z,38.04
2023-04-10T04:15:12.536Z,25.00
2023-04-10T04:16:12.670Z,25.00
2023-04-10T04:17:12.598Z,26.76
2023-04-10T04:18:12.604Z,25.00
2023-04-10T04:19:12.602Z,29.18
2023-04-10T04:20:12.623Z,25.00
2023-04-10T04:21:12.618Z,26.90
2023-04-10T04:22:12.639Z,29.05
2023-04-10T04:23:12.644Z,25.78
2023-04-10T04:24:12.650Z,28.50
2023-04-10T04:25:12.640Z,28.78
2023-04-10T04:26:12.626Z,25.00
2023-04-10T04:27:12.654Z,27.07
2023-04-10T04:28:12.679Z,32.47
2023-04-10T04:29:12.666Z,25.00
2023-04-10T04:30:12.642Z,29.37
2023-04-10T04:31:12.633Z,29.98
2023-04-10T04:32:12.815Z,26.70
2023-04-10T04:33:12.661Z,26.39
2023-04-10T04:34:12.660Z,28.72
2023-04-10T04:35:12.675Z,25.19
2023-04-10T04:36:12.699Z,28.18
2023-04-10T04:37:12.640Z,26.56
2023-04-10T04:38:12.645Z,36.19
2023-04-10T04:39:12.645Z,33.11
2023-04-10T04:40:12.666Z,27.41
2023-04-10T04:41:12.657Z,31.80
2023-04-10T04:42:12.664Z,30.70
2023-04-10T04:43:12.662Z,33.98
2023-04-10T04:44:12.736Z,32.31
2023-04-10T04:45:12.713Z,35.18
2023-04-10T04:46:12.791Z,38.46
2023-04-10T04:47:12.800Z,41.69
2023-04-10T04:48:12.785Z,39.57
2023-04-10T04:49:12.812Z,47.04
2023-04-10T04:50:12.846Z,48.47
2023-04-10T04:51:12.903Z,49.28
2023-04-10T04:52:12.927Z,47.07
2023-04-10T04:53:13.117Z,49.49
2023-04-10T04:54:13.070Z,50.15
2023-04-10T04:55:13.125Z,51.08
2023-04-10T04:56:13.229Z,51.28
2023-04-10T04:57:13.271Z,53.78
2023-04-10T04:58:13.305Z,55.27
2023-04-10T04:59:13.398Z,61.42
2023-04-10T05:00:13.453Z,56.84
2023-04-10T05:01:13.541Z,62.50
2023-04-10T05:02:13.651Z,59.74
2023-04-10T05:03:13.770Z,60.90
2023-04-10T05:04:13.847Z,67.51
2023-04-10T05:05:13.735Z,63.84
2023-04-10T05:06:13.787Z,65.65
2023-04-10T05:07:13.860Z,67.65
2023-04-10T05:08:13.917Z,69.53
2023-04-10T05:09:14.042Z,68.86
2023-04-10T05:10:14.034Z,70.64
2023-04-10T05:11:14.102Z,71.94
2023-04-10T05:12:14.125Z,75.53
2023-04-10T05:13:14.203Z,73.17
2023-04-10T05:14:14.243Z,72.52
2023-04-10T05:15:14.325Z,76.12
2023-04-10T05:16:14.476Z,78.70
2023-04-10T05:17:14.454Z,78.03
2023-04-10T05:18:14.573Z,75.84
2023-04-10T05:19:14.553Z,78.24
2023-04-10T05:20:14.584Z,80.31
2023-04-10T05:21:14.678Z,84.20
2023-04-10T05:22:16.302Z,81.81
2023-04-10T05:23:14.741Z,82.84
2023-04-10T05:24:14.745Z,82.45
2023-04-10T05:25:14.723Z,84.11
2023-04-10T05:26:14.703Z,85.93
2023-04-10T05:27:14.705Z,84.34
2023-04-10T05:28:14.720Z,86.91
2023-04-10T05:29:14.728Z,84.95
2023-04-10T05:30:14.688Z,89.45
2023-04-10T05:31:14.758Z,91.32
2023-04-10T05:32:14.695Z,90.56
2023-04-10T05:33:14.684Z,89.26
2023-04-10T05:34:14.649Z,91.49
2023-04-10T05:35:14.655Z,92.65
2023-04-10T05:36:14.734Z,92.02
2023-04-10T05:37:14.671Z,89.50
2023-04-10T05:38:14.638Z,91.92
2023-04-10T05:39:14.638Z,92.60
2023-04-10T05:40:14.642Z,91.17
2023-04-10T05:41:14.650Z,92.60
2023-04-10T05:42:14.670Z,94.22
2023-04-10T05:43:14.615Z,97.78
2023-04-10T05:44:14.632Z,96.23
2023-04-10T05:45:14.579Z,97.91
2023-04-10T05:46:14.595Z,97.87
2023-04-10T05:47:14.597Z,100.45
2023-04-10T05:48:14.594Z,98.28
2023-04-10T05:49:14.543Z,100.59
2023-04-10T05:50:14.560Z,101.49
2023-04-10T05:51:14.572Z,103.50
2023-04-10T05:52:14.582Z,99.79
2023-04-10T05:53:14.534Z,101.13
2023-04-10T05:54:14.540Z,103.50
2023-04-10T05:55:14.504Z,103.06
2023-04-10T05:56:14.495Z,104.68
2023-04-10T05:57:14.504Z,100.80
2023-04-10T05:58:14.462Z,105.27
2023-04-10T05:59:14.476Z,108.87
2023-04-10T06:00:14.485Z,102.78
2023-04-10T06:01:14.460Z,107.06
2023-04-10T06:02:14.552Z,107.78
2023-04-10T06:03:14.551Z,108.73
2023-04-10T06:04:14.683Z,109.62
2023-04-10T06:05:14.563Z,106.96
2023-04-10T06:06:14.575Z,108.88
2023-04-10T06:07:14.624Z,110.15
2023-04-10T06:08:14.679Z,109.75
2023-04-10T06:09:14.692Z,111.53
2023-04-10T06:10:14.718Z,112.08
2023-04-10T06:11:14.811Z,108.50
2023-04-10T06:12:14.828Z,113.57
2023-04-10T06:13:14.837Z,115.13
2023-04-10T06:14:14.940Z,112.90
2023-04-10T06:15:14.994Z,113.40
2023-04-10T06:16:15.020Z,113.09
2023-04-10T06:17:15.164Z,115.03
2023-04-10T06:18:15.112Z,111.29
2023-04-10T06:19:15.115Z,113.94
2023-04-10T06:20:15.178Z,114.06
2023-04-10T06:21:15.261Z,115.72
2023-04-10T06:22:15.241Z,115.54
2023-04-10T06:23:15.253Z,116.06
2023-04-10T06:24:15.304Z,116.60
2023-04-10T06:25:15.357Z,117.99
2023-04-10T06:26:15.378Z,117.63
2023-04-10T06:27:15.409Z,120.33
2023-04-10T06:28:15.486Z,118.26
2023-04-10T06:29:15.537Z,118.19
2023-04-10T06:30:15.560Z,119.39
2023-04-10T06:31:15.672Z,120.16
2023-04-10T06:32:15.665Z,118.35
2023-04-10T06:33:15.682Z,120.73
2023-04-10T06:34:15.723Z,123.40
2023-04-10T06:35:15.739Z,122.75
2023-04-10T06:36:15.817Z,121.25
2023-04-10T06:37:15.843Z,122.59
2023-04-10T06:38:15.877Z,121.39
2023-04-10T06:39:15.930Z,123.85
2023-04-10T06:40:15.942Z,120.08
2023-04-10T06:41:16.007Z,122.19
2023-04-10T06:42:16.044Z,117.25
2023-04-10T06:43:16.048Z,122.77
2023-04-10T06:44:16.119Z,121.56
2023-04-10T06:45:16.089Z,121.59
2023-04-10T06:46:16.368Z,120.58
2023-04-10T06:47:16.169Z,124.34
2023-04-10T06:48:16.235Z,125.15
2023-04-10T06:49:16.251Z,123.19
2023-04-10T06:50:16.251Z,125.95
2023-04-10T06:51:16.299Z,125.11
2023-04-10T06:52:16.349Z,126.46
2023-04-10T06:53:16.371Z,124.24
2023-04-10T06:54:16.438Z,125.38
2023-04-10T06:55:16.436Z,126.31
2023-04-10T06:56:16.508Z,125.48
2023-04-10T06:57:16.513Z,125.79
2023-04-10T06:58:16.580Z,125.50
2023-04-10T06:59:16.516Z,124.68
2023-04-10T07:00:16.567Z,125.27
2023-04-10T07:01:16.769Z,127.95
2023-04-10T07:02:16.718Z,128.17
2023-04-10T07:03:16.680Z,126.98
2023-04-10T07:04:16.686Z,126.74
2023-04-10T07:05:16.708Z,126.40
2023-04-10T07:06:16.714Z,129.02
2023-04-10T07:07:16.776Z,127.46
2023-04-10T07:08:16.784Z,127.92
2023-04-10T07:09:16.804Z,127.63
2023-04-10T07:10:16.839Z,126.85
2023-04-10T07:11:16.856Z,131.00
2023-04-10T07:12:16.875Z,130.11
2023-04-10T07:13:16.918Z,127.72
2023-04-10T07:14:16.930Z,128.51
2023-04-10T07:15:16.935Z,132.33
2023-04-10T07:16:17.056Z,129.59
2023-04-10T07:17:16.992Z,130.94
2023-04-10T07:18:17.050Z,128.41
2023-04-10T07:19:17.058Z,129.78
2023-04-10T07:20:17.067Z,130.99
2023-04-10T07:21:17.084Z,129.73
2023-04-10T07:22:17.092Z,131.37
2023-04-10T07:23:17.130Z,131.51
2023-04-10T07:24:17.200Z,132.44
2023-04-10T07:25:17.164Z,133.67
2023-04-10T07:26:17.171Z,132.71
2023-04-10T07:27:17.214Z,130.30
2023-04-10T07:28:17.233Z,134.56
2023-04-10T07:29:17.226Z,130.69
2023-04-10T07:30:17.281Z,136.26
2023-04-10T07:31:17.318Z,133.06
2023-04-10T07:32:17.416Z,132.32
2023-04-10T07:33:17.491Z,133.04
2023-04-10T07:34:17.367Z,133.57
2023-04-10T07:35:17.419Z,133.50
2023-04-10T07:36:17.440Z,131.00
2023-04-10T07:37:17.400Z,134.13
2023-04-10T07:38:17.456Z,134.41
2023-04-10T07:39:17.446Z,133.18
2023-04-10T07:40:17.523Z,134.73
2023-04-10T07:41:17.514Z,134.14
2023-04-10T07:42:17.512Z,133.85
2023-04-10T07:43:17.531Z,134.44
2023-04-10T07:44:17.600Z,137.16
2023-04-10T07:45:17.586Z,136.07
2023-04-10T07:46:17.672Z,136.02
2023-04-10T07:47:17.823Z,135.59
2023-04-10T07:48:17.671Z,136.08
2023-04-10T07:49:17.714Z,139.11
2023-04-10T07:50:17.686Z,136.61
2023-04-10T07:51:17.736Z,136.52
2023-04-10T07:52:17.785Z,136.02
2023-04-10T07:53:17.743Z,139.11
2023-04-10T07:54:17.780Z,137.95
2023-04-10T07:55:17.820Z,138.04
2023-04-10T07:56:17.823Z,135.99
2023-04-10T07:57:17.847Z,136.43
2023-04-10T07:58:17.869Z,137.08
2023-04-10T07:59:17.892Z,140.96
2023-04-10T08:00:17.920Z,141.15
2023-04-10T08:01:17.930Z,139.97
2023-04-10T08:02:17.995Z,138.82
2023-04-10T08:03:18.061Z,138.18
2023-04-10T08:04:18.284Z,140.27
2023-04-10T08:05:18.145Z,138.71
2023-04-10T08:06:18.015Z,138.72
2023-04-10T08:07:17.994Z,140.33
2023-04-10T08:08:18.169Z,141.17
2023-04-10T08:09:18.024Z,137.78
2023-04-10T08:10:18.025Z,140.90
2023-04-10T08:11:18.028Z,141.53
2023-04-10T08:12:17.977Z,137.62
2023-04-10T08:13:18.042Z,141.87
2023-04-10T08:14:18.562Z,142.63
2023-04-10T08:15:17.997Z,143.00
2023-04-10T08:16:18.059Z,141.14
2023-04-10T08:17:17.965Z,142.03
2023-04-10T08:18:17.978Z,141.24
2023-04-10T08:19:17.993Z,138.67
2023-04-10T08:20:17.991Z,142.87
2023-04-10T08:21:17.993Z,143.23
2023-04-10T08:22:17.970Z,140.52
2023-04-10T08:23:20.716Z,143.22
2023-04-10T08:24:18.013Z,144.74
2023-04-10T08:25:17.986Z,143.17
2023-04-10T08:26:17.953Z,143.26
2023-04-10T08:27:17.972Z,144.00
2023-04-10T08:28:17.941Z,140.91
2023-04-10T08:29:17.939Z,142.55
2023-04-10T08:30:17.913Z,141.73
2023-04-10T08:31:18.026Z,145.78
2023-04-10T08:32:17.912Z,143.67
2023-04-10T08:33:17.912Z,145.36
2023-04-10T08:34:17.913Z,144.17
2023-04-10T08:35:17.929Z,143.59
2023-04-10T08:36:20.214Z,143.83
2023-04-10T08:37:17.877Z,144.03
2023-04-10T08:38:17.902Z,144.68
2023-04-10T08:39:17.869Z,144.18
2023-04-10T08:40:17.869Z,145.93
2023-04-10T08:41:17.871Z,144.56
2023-04-10T08:42:17.897Z,143.61
2023-04-10T08:43:17.861Z,146.99
2023-04-10T08:44:17.850Z,144.72
2023-04-10T08:45:17.831Z,145.76
2023-04-10T08:46:17.872Z,147.76
2023-04-10T08:47:17.852Z,143.70
2023-04-10T08:48:17.813Z,146.65
2023-04-10T08:49:17.818Z,144.71
2023-04-10T08:50:17.785Z,145.45
2023-04-10T08:51:20.079Z,149.11
2023-04-10T08:52:17.801Z,148.66
2023-04-10T08:53:17.782Z,149.04
2023-04-10T08:54:17.785Z,147.97
2023-04-10T08:55:17.754Z,148.84
2023-04-10T08:56:17.763Z,149.64
2023-04-10T08:57:17.773Z,147.06
2023-04-10T08:58:17.726Z,145.11
2023-04-10T08:59:17.753Z,146.66
2023-04-10T09:00:23.474Z,146.61
2023-04-10T09:01:18.797Z,146.99
2023-04-10T09:02:17.862Z,147.39
2023-04-10T09:03:17.767Z,148.16
2023-04-10T09:04:17.813Z,148.35
2023-04-10T09:05:17.729Z,150.61
2023-04-10T09:06:17.658Z,151.31
2023-04-10T09:07:17.698Z,148.59
2023-04-10T09:08:17.699Z,149.40
2023-04-10T09:09:17.673Z,149.73
2023-04-10T09:10:17.703Z,150.74
2023-04-10T09:11:17.755Z,149.96
2023-04-10T09:12:17.832Z,150.82
2023-04-10T09:13:17.878Z,150.97
2023-04-10T09:14:17.887Z,151.29
2023-04-10T09:15:18.002Z,151.32
2023-04-10T09:16:18.011Z,150.73
2023-04-10T09:17:18.069Z,151.99
2023-04-10T09:18:18.074Z,149.39
2023-04-10T09:19:18.100Z,151.76
2023-04-10T09:20:18.130Z,150.98
2023-04-10T09:21:18.209Z,151.90
2023-04-10T09:22:18.214Z,153.02
2023-04-10T09:23:18.258Z,151.50
2023-04-10T09:24:18.264Z,150.78
2023-04-10T09:25:18.265Z,151.88
2023-04-10T09:26:18.294Z,151.93
2023-04-10T09:27:18.346Z,150.27
2023-04-10T09:28:18.350Z,152.88
2023-04-10T09:29:18.403Z,151.76
2023-04-10T09:30:18.367Z,151.66
2023-04-10T09:31:18.447Z,151.61
2023-04-10T09:32:18.419Z,152.86
2023-04-10T09:33:18.419Z,152.49
2023-04-10T09:34:18.491Z,153.23
2023-04-10T09:35:18.499Z,152.25
2023-04-10T09:36:18.516Z,153.35
2023-04-10T09:37:18.561Z,153.42
2023-04-10T09:38:18.542Z,154.07
2023-04-10T09:39:18.567Z,153.36
2023-04-10T09:40:18.611Z,154.29
2023-04-10T09:41:18.575Z,154.46
2023-04-10T09:42:18.588Z,154.42
2023-04-10T09:43:18.597Z,155.07
2023-04-10T09:44:18.604Z,155.18
2023-04-10T09:45:18.554Z,155.18
2023-04-10T09:46:18.642Z,155.05
2023-04-10T09:47:18.603Z,155.85
2023-04-10T09:48:18.607Z,155.92
2023-04-10T09:49:18.565Z,156.59
2023-04-10T09:50:18.641Z,155.23
2023-04-10T09:51:18.597Z,156.58
2023-04-10T09:52:18.613Z,156.60
2023-04-10T09:53:18.618Z,157.24
2023-04-10T09:54:18.677Z,153.61
2023-04-10T09:55:18.726Z,157.98
2023-04-10T09:56:18.743Z,157.00
2023-04-10T09:57:18.754Z,158.51
2023-04-10T09:58:18.802Z,159.17
2023-04-10T09:59:18.860Z,154.57
2023-04-10T10:00:18.940Z,158.12
2023-04-10T10:01:18.984Z,158.87
2023-04-10T10:02:19.221Z,156.80
2023-04-10T10:03:19.242Z,152.67
2023-04-10T10:04:19.264Z,154.80
2023-04-10T10:05:19.290Z,153.03
2023-04-10T10:06:19.304Z,155.99
2023-04-10T10:07:19.357Z,156.80
2023-04-10T10:08:19.409Z,151.57
2023-04-10T10:09:19.484Z,157.68
2023-04-10T10:10:19.492Z,153.15
2023-04-10T10:11:19.550Z,154.04
2023-04-10T10:12:19.609Z,150.89
2023-04-10T10:13:19.643Z,150.30
2023-04-10T10:14:19.726Z,156.73
2023-04-10T10:15:19.746Z,154.61
2023-04-10T10:16:19.796Z,156.20
2023-04-10T10:17:19.858Z,153.72
2023-04-10T10:18:19.866Z,150.30
2023-04-10T10:19:19.916Z,154.77
2023-04-10T10:20:19.936Z,150.88
2023-04-10T10:21:19.941Z,149.62
2023-04-10T10:22:19.991Z,154.06
2023-04-10T10:23:19.993Z,156.62
2023-04-10T10:24:20.064Z,159.60
2023-04-10T10:25:20.070Z,157.01
2023-04-10T10:26:20.122Z,156.55
2023-04-10T10:27:20.156Z,151.42
2023-04-10T10:28:20.117Z,149.91
2023-04-10T10:29:20.201Z,153.95
2023-04-10T10:30:29.443Z,153.50
2023-04-10T10:31:21.207Z,153.62
2023-04-10T10:32:20.285Z,154.68
2023-04-10T10:33:20.164Z,154.04
2023-04-10T10:34:20.182Z,155.64
2023-04-10T10:35:20.154Z,154.01
2023-04-10T10:36:20.195Z,156.06
2023-04-10T10:37:20.168Z,152.53
2023-04-10T10:38:20.159Z,154.21
2023-04-10T10:39:20.150Z,149.30
2023-04-10T10:40:20.116Z,148.63
2023-04-10T10:41:20.167Z,153.70
2023-04-10T10:42:20.131Z,156.50
2023-04-10T10:43:20.147Z,151.85
2023-04-10T10:44:20.111Z,150.26
2023-04-10T10:45:20.077Z,151.45
2023-04-10T10:46:20.165Z,150.15
2023-04-10T10:47:20.067Z,153.51
2023-04-10T10:48:20.073Z,151.00
2023-04-10T10:49:20.075Z,154.18
2023-04-10T10:50:20.682Z,155.23
2023-04-10T10:51:20.017Z,151.82
2023-04-10T10:52:20.063Z,155.34
2023-04-10T10:53:20.063Z,153.13
2023-04-10T10:54:20.009Z,152.76
2023-04-10T10:55:20.020Z,153.05
2023-04-10T10:56:20.026Z,149.86
2023-04-10T10:57:20.029Z,154.60
2023-04-10T10:58:20.010Z,156.73
2023-04-10T10:59:20.001Z,153.44
2023-04-10T11:00:20.002Z,155.76
2023-04-10T11:01:20.036Z,154.34
2023-04-10T11:02:20.135Z,155.51
2023-04-10T11:03:20.253Z,155.06
2023-04-10T11:04:20.034Z,155.53
2023-04-10T11:05:20.083Z,152.80
2023-04-10T11:06:20.176Z,152.64
2023-04-10T11:07:20.191Z,150.49
2023-04-10T11:08:20.238Z,152.95
2023-04-10T11:09:20.320Z,153.83
2023-04-10T11:10:20.380Z,150.47
2023-04-10T11:11:20.388Z,153.09
2023-04-10T11:12:20.503Z,155.46
2023-04-10T11:13:20.476Z,152.13
2023-04-10T11:14:20.505Z,152.79
2023-04-10T11:15:20.563Z,153.43
2023-04-10T11:16:20.730Z,153.32
2023-04-10T11:17:20.712Z,156.05
2023-04-10T11:18:20.690Z,152.90
2023-04-10T11:20:20.764Z,154.04
2023-04-10T11:21:20.770Z,155.95
2023-04-10T11:22:20.821Z,153.15
2023-04-10T11:23:20.825Z,151.46
2023-04-10T11:24:20.889Z,156.61
2023-04-10T11:25:20.841Z,154.40
2023-04-10T11:26:20.854Z,156.09
2023-04-10T11:27:20.857Z,155.26
2023-04-10T11:28:20.846Z,154.30
2023-04-10T11:29:20.860Z,154.42
2023-04-10T11:30:20.877Z,153.31
2023-04-10T11:31:20.978Z,151.92
2023-04-10T11:32:20.885Z,154.86
2023-04-10T11:33:20.918Z,159.01
2023-04-10T11:34:20.922Z,159.05
2023-04-10T11:35:20.909Z,155.48
2023-04-10T11:36:20.905Z,153.43
2023-04-10T11:37:20.918Z,157.83
2023-04-10T11:38:20.869Z,158.97
2023-04-10T11:39:20.943Z,159.25
2023-04-10T11:40:20.890Z,162.28
2023-04-10T11:41:20.912Z,157.65
2023-04-10T11:42:20.937Z,159.06
2023-04-10T11:43:21.015Z,156.92
2023-04-10T11:44:21.021Z,155.67
2023-04-10T11:45:21.097Z,157.96
2023-04-10T11:46:21.061Z,155.45
2023-04-10T11:47:21.148Z,157.08
2023-04-10T11:48:21.188Z,153.94
2023-04-10T11:49:21.267Z,154.72
2023-04-10T11:50:21.320Z,152.66
2023-04-10T11:51:21.361Z,152.73
2023-04-10T11:52:21.432Z,149.62
2023-04-10T11:53:21.518Z,149.87
2023-04-10T11:54:21.536Z,149.60
2023-04-10T11:55:21.594Z,146.64
2023-04-10T11:56:21.657Z,145.90
2023-04-10T11:57:21.768Z,143.09
2023-04-10T11:58:21.721Z,143.67
2023-04-10T11:59:21.770Z,146.41
2023-04-10T12:00:21.813Z,143.52
2023-04-10T12:01:21.910Z,141.97
2023-04-10T12:02:22.069Z,144.02
2023-04-10T12:03:22.060Z,141.16
2023-04-10T12:04:22.230Z,138.35
2023-04-10T12:05:22.022Z,138.71
2023-04-10T12:06:22.111Z,136.75
2023-04-10T12:07:22.144Z,136.03
2023-04-10T12:08:22.145Z,137.36
2023-04-10T12:09:22.228Z,136.40
2023-04-10T12:10:22.213Z,132.12
2023-04-10T12:11:22.222Z,135.38
2023-04-10T12:12:22.284Z,132.68
2023-04-10T12:13:22.282Z,133.73
2023-04-10T12:14:22.310Z,136.69
2023-04-10T12:15:22.351Z,134.20
2023-04-10T12:16:22.538Z,129.22
2023-04-10T12:17:22.431Z,132.44
2023-04-10T12:18:22.435Z,134.24
2023-04-10T12:19:22.387Z,128.08
2023-04-10T12:20:22.428Z,132.30
2023-04-10T12:21:22.444Z,131.83
2023-04-10T12:22:22.462Z,129.82
2023-04-10T12:23:22.446Z,130.88
2023-04-10T12:24:22.470Z,129.29
2023-04-10T12:25:22.538Z,135.22
2023-04-10T12:26:22.440Z,130.87
2023-04-10T12:27:22.508Z,134.25
2023-04-10T12:28:22.450Z,132.64
2023-04-10T12:29:22.451Z,133.44
2023-04-10T12:30:22.455Z,129.24
2023-04-10T12:31:22.442Z,134.38
2023-04-10T12:32:22.551Z,133.25